Time;durP1;ratioP1;P1;durP2;ratioP2;P2;SDS_P1;SDS_P2;PMS_P1;PMS_P2;Temp;Humidity;BMP_temperature;BMP_pressure;BME280_temperature;BME280_humidity;BME280_pressure;Samples;Min_cycle;Max_cycle;Signal;HPM_P1;HPM_P2
2021/05/26 00:00:56;;;;;;;2.17;1.77;;;13.70;62.90;;;;;;1482061;40;20021;-59
2021/05/26 00:02:17;;;;;;;2.97;2.03;;;13.70;62.90;;;;;;1481222;40;20362;-59
2021/05/26 00:03:38;;;;;;;3.25;1.85;;;13.70;62.80;;;;;;1482733;40;20017;-59
2021/05/26 00:04:59;;;;;;;2.40;1.73;;;13.70;62.90;;;;;;1480091;40;20030;-59
2021/05/26 00:06:20;;;;;;;2.28;1.92;;;13.70;62.90;;;;;;1478775;40;20021;-59
2021/05/26 00:07:41;;;;;;;2.65;1.85;;;13.70;62.90;;;;;;1480064;40;20073;-59
2021/05/26 00:09:02;;;;;;;2.22;2.03;;;13.60;63.00;;;;;;1480350;40;20044;-59
2021/05/26 00:10:23;;;;;;;5.28;2.33;;;13.70;63.20;;;;;;1479476;40;20098;-60
2021/05/26 00:11:44;;;;;;;2.22;1.77;;;13.60;63.20;;;;;;1480836;40;20086;-59
2021/05/26 00:13:05;;;;;;;1.75;1.65;;;13.60;63.10;;;;;;1478862;40;20033;-59
2021/05/26 00:14:25;;;;;;;2.38;1.80;;;13.60;63.10;;;;;;1480199;40;20040;-60
2021/05/26 00:15:47;;;;;;;4.10;2.20;;;13.60;63.10;;;;;;1479657;40;20084;-59
2021/05/26 00:17:08;;;;;;;2.83;1.83;;;13.60;63.10;;;;;;1481153;40;20444;-60
2021/05/26 00:18:30;;;;;;;2.72;2.38;;;13.60;63.20;;;;;;1479075;40;20036;-59
2021/05/26 00:19:51;;;;;;;3.38;1.80;;;13.60;63.20;;;;;;1479406;40;20036;-59
2021/05/26 00:21:12;;;;;;;2.13;1.75;;;13.60;63.20;;;;;;1479075;40;20127;-60
2021/05/26 00:22:33;;;;;;;2.90;2.20;;;13.60;63.30;;;;;;1479640;40;20051;-59
2021/05/26 00:23:54;;;;;;;3.78;2.30;;;13.60;63.30;;;;;;1481992;40;20324;-59
2021/05/26 00:25:15;;;;;;;4.32;2.47;;;13.60;63.30;;;;;;1479363;40;20342;-59
2021/05/26 00:26:36;;;;;;;5.85;2.80;;;13.60;63.30;;;;;;1480020;40;20029;-59
2021/05/26 00:27:58;;;;;;;2.90;2.00;;;13.60;63.30;;;;;;1481230;40;20029;-60
2021/05/26 00:29:19;;;;;;;3.47;2.30;;;13.60;63.40;;;;;;1479841;40;20084;-59
2021/05/26 00:30:46;;;;;;;4.65;2.30;;;13.60;63.40;;;;;;1479875;40;20044;-59
2021/05/26 00:32:07;;;;;;;5.40;2.15;;;13.60;63.30;;;;;;1480042;40;20041;-59
2021/05/26 00:33:28;;;;;;;3.60;2.42;;;13.60;63.30;;;;;;1481092;40;20343;-59
2021/05/26 00:34:49;;;;;;;5.05;2.38;;;13.60;63.30;;;;;;1478611;40;20029;-59
2021/05/26 00:36:10;;;;;;;4.45;2.28;;;13.60;63.40;;;;;;1481472;40;20028;-59
2021/05/26 00:37:30;;;;;;;4.18;2.10;;;13.60;63.50;;;;;;1478911;40;20028;-59
2021/05/26 00:38:51;;;;;;;3.92;2.30;;;13.60;63.50;;;;;;1482732;40;20048;-59
2021/05/26 00:40:13;;;;;;;4.25;2.30;;;13.60;63.50;;;;;;1480875;40;20450;-59
2021/05/26 00:41:34;;;;;;;3.33;2.45;;;13.60;63.50;;;;;;1479948;40;20069;-59
2021/05/26 00:42:55;;;;;;;5.15;2.42;;;13.50;63.50;;;;;;1480411;40;20033;-59
2021/05/26 00:44:17;;;;;;;2.58;1.85;;;13.60;63.50;;;;;;1479351;40;20032;-59
2021/05/26 00:45:37;;;;;;;3.58;2.50;;;13.60;63.60;;;;;;1480114;40;20656;-59
2021/05/26 00:46:58;;;;;;;3.45;2.13;;;13.50;63.60;;;;;;1478998;40;20038;-60
2021/05/26 00:48:19;;;;;;;3.67;2.60;;;13.60;63.60;;;;;;1482550;40;20021;-59
2021/05/26 00:49:40;;;;;;;4.65;2.95;;;13.60;63.60;;;;;;1479934;40;20036;-59
2021/05/26 00:51:01;;;;;;;3.67;2.58;;;13.60;63.50;;;;;;1480102;40;20028;-59
2021/05/26 00:52:22;;;;;;;4.50;2.60;;;13.50;63.50;;;;;;1481870;40;20060;-59
2021/05/26 00:53:43;;;;;;;4.18;2.88;;;13.50;63.40;;;;;;1480448;40;20033;-59
2021/05/26 00:55:05;;;;;;;3.78;2.50;;;13.60;63.50;;;;;;1480688;40;20073;-60
2021/05/26 00:56:26;;;;;;;5.78;2.65;;;13.50;63.50;;;;;;1478783;40;20041;-59
2021/05/26 00:57:48;;;;;;;8.35;2.80;;;13.50;63.50;;;;;;1479529;40;20041;-59
2021/05/26 00:59:09;;;;;;;5.60;2.92;;;13.50;63.40;;;;;;1482582;40;20056;-59
2021/05/26 01:00:32;;;;;;;3.17;2.20;;;13.50;63.30;;;;;;1482557;40;20361;-59
2021/05/26 01:01:53;;;;;;;5.47;2.45;;;13.50;63.30;;;;;;1480595;40;20031;-59
2021/05/26 01:03:14;;;;;;;6.35;3.15;;;13.50;63.30;;;;;;1479244;40;20021;-59
2021/05/26 01:04:35;;;;;;;8.50;2.97;;;13.50;63.20;;;;;;1481392;40;20045;-59
2021/05/26 01:05:56;;;;;;;5.95;2.80;;;13.50;63.30;;;;;;1481377;40;20421;-59
2021/05/26 01:07:17;;;;;;;4.25;2.60;;;13.50;63.20;;;;;;1481373;40;20029;-59
2021/05/26 01:08:38;;;;;;;5.20;2.95;;;13.50;63.20;;;;;;1481965;40;20492;-59
2021/05/26 01:10:01;;;;;;;7.53;2.88;;;13.50;63.30;;;;;;1481483;40;20048;-59
2021/05/26 01:11:21;;;;;;;5.22;2.60;;;13.50;63.40;;;;;;1473825;40;20382;-59
2021/05/26 01:12:44;;;;;;;3.55;2.38;;;13.50;63.40;;;;;;1474586;40;20037;-59
2021/05/26 01:14:05;;;;;;;6.13;2.63;;;13.50;63.50;;;;;;1477239;40;20381;-59
2021/05/26 01:15:28;;;;;;;4.95;2.67;;;13.50;63.60;;;;;;1476496;40;20068;-59
2021/05/26 01:16:49;;;;;;;3.50;2.38;;;13.50;63.60;;;;;;1477783;40;20063;-59
2021/05/26 01:18:24;;;;;;;7.72;2.60;;;13.50;63.60;;;;;;1475273;40;20064;-59
2021/05/26 01:19:45;;;;;;;4.65;2.60;;;13.50;63.60;;;;;;1476152;40;20294;-59
2021/05/26 01:21:08;;;;;;;5.60;2.30;;;13.50;63.50;;;;;;1475731;40;20111;-59
2021/05/26 01:22:30;;;;;;;9.70;3.20;;;13.50;63.50;;;;;;1476656;40;20095;-59
2021/05/26 01:23:50;;;;;;;4.65;2.40;;;13.50;63.40;;;;;;1477826;40;20079;-59
2021/05/26 01:25:12;;;;;;;5.13;2.28;;;13.50;63.40;;;;;;1476851;40;20029;-60
2021/05/26 01:26:33;;;;;;;5.22;2.58;;;13.50;63.50;;;;;;1474370;40;20029;-59
2021/05/26 01:27:56;;;;;;;4.55;2.90;;;13.50;63.50;;;;;;1476069;40;20037;-59
2021/05/26 01:29:17;;;;;;;7.32;2.78;;;13.50;63.40;;;;;;1475421;40;20390;-59
2021/05/26 01:30:38;;;;;;;6.13;2.70;;;13.50;63.30;;;;;;1477230;40;20126;-59
2021/05/26 01:32:00;;;;;;;6.07;2.53;;;13.50;63.40;;;;;;1478772;40;20037;-60
2021/05/26 01:33:21;;;;;;;8.77;2.92;;;13.50;63.30;;;;;;1475389;40;20140;-59
2021/05/26 01:34:42;;;;;;;5.10;2.60;;;13.50;63.40;;;;;;1474242;40;20041;-59
2021/05/26 01:36:04;;;;;;;6.35;2.80;;;13.50;63.30;;;;;;1477613;40;20045;-59
2021/05/26 01:37:24;;;;;;;6.30;3.10;;;13.40;63.40;;;;;;1476646;40;20123;-59
2021/05/26 01:38:45;;;;;;;4.07;2.72;;;13.50;63.50;;;;;;1478785;40;20048;-59
2021/05/26 01:40:08;;;;;;;6.13;2.40;;;13.40;63.40;;;;;;1476549;40;20041;-59
2021/05/26 01:41:29;;;;;;;4.70;2.42;;;13.50;63.60;;;;;;1474572;40;20033;-60
2021/05/26 01:42:50;;;;;;;6.32;2.83;;;13.40;63.50;;;;;;1475555;40;20061;-59
2021/05/26 01:44:11;;;;;;;4.65;2.85;;;13.50;63.60;;;;;;1476985;40;20302;-59
2021/05/26 01:45:32;;;;;;;3.63;2.30;;;13.50;63.60;;;;;;1475411;40;20119;-59
2021/05/26 01:46:53;;;;;;;6.28;2.72;;;13.50;63.60;;;;;;1475791;40;20044;-59
2021/05/26 01:48:14;;;;;;;7.22;2.55;;;13.50;63.60;;;;;;1476874;40;20099;-59
2021/05/26 01:49:35;;;;;;;4.35;2.38;;;13.40;63.50;;;;;;1477315;40;20040;-59
2021/05/26 01:50:56;;;;;;;8.57;2.70;;;13.50;63.60;;;;;;1475231;40;20037;-59
2021/05/26 01:52:16;;;;;;;5.07;2.42;;;13.50;63.70;;;;;;1477609;40;20501;-59
2021/05/26 01:53:37;;;;;;;6.85;2.83;;;13.40;63.60;;;;;;1475305;40;20045;-59
2021/05/26 01:54:58;;;;;;;9.70;2.70;;;13.40;63.60;;;;;;1475216;40;20030;-59
2021/05/26 01:56:30;;;;;;;6.90;2.40;;;13.40;63.60;;;;;;1475832;40;20033;-59
2021/05/26 01:57:51;;;;;;;4.32;2.25;;;13.50;63.70;;;;;;1476014;40;20093;-59
2021/05/26 01:59:12;;;;;;;6.20;2.92;;;13.50;63.60;;;;;;1477358;40;20540;-60
2021/05/26 02:00:34;;;;;;;5.93;2.47;;;13.50;63.70;;;;;;1475837;40;20052;-59
2021/05/26 02:01:55;;;;;;;5.43;2.35;;;13.50;63.80;;;;;;1475175;40;20033;-60
2021/05/26 02:03:16;;;;;;;6.20;2.60;;;13.50;63.70;;;;;;1476357;40;20064;-59
2021/05/26 02:04:37;;;;;;;6.80;2.75;;;13.50;63.70;;;;;;1474166;40;20041;-59
2021/05/26 02:05:58;;;;;;;6.00;2.30;;;13.50;63.80;;;;;;1477505;40;20542;-58
2021/05/26 02:07:19;;;;;;;7.60;2.80;;;13.40;63.70;;;;;;1477756;40;20460;-59
2021/05/26 02:08:41;;;;;;;6.72;3.10;;;13.40;63.70;;;;;;1476057;40;20044;-59
2021/05/26 02:10:04;;;;;;;6.70;2.40;;;13.40;63.70;;;;;;1475737;40;20469;-59
2021/05/26 02:13:05;;;;;;;7.47;3.08;;;13.40;63.80;;;;;;1476690;40;20410;-59
2021/05/26 02:14:26;;;;;;;9.25;3.28;;;13.40;63.70;;;;;;1477296;40;20353;-59
2021/05/26 02:15:47;;;;;;;5.72;2.72;;;13.40;63.70;;;;;;1478243;40;20037;-59
2021/05/26 02:17:08;;;;;;;6.50;2.97;;;13.40;64.40;;;;;;1474798;40;20049;-59
2021/05/26 02:18:29;;;;;;;2.90;2.60;;;13.40;64.50;;;;;;1476666;40;20029;-59
2021/05/26 02:19:50;;;;;;;7.90;3.00;;;13.40;63.90;;;;;;1475810;40;20069;-59
2021/05/26 02:21:11;;;;;;;7.55;2.85;;;13.40;63.90;;;;;;1476710;40;20045;-59
2021/05/26 02:22:34;;;;;;;5.55;2.90;;;13.40;64.00;;;;;;1476058;40;20040;-59
2021/05/26 02:23:55;;;;;;;9.85;3.03;;;13.40;63.90;;;;;;1474100;40;20614;-59
2021/05/26 02:25:16;;;;;;;5.18;2.78;;;13.40;63.90;;;;;;1477145;40;20041;-59
2021/05/26 02:26:37;;;;;;;6.13;2.60;;;13.40;63.90;;;;;;1475018;40;20152;-59
2021/05/26 02:27:57;;;;;;;4.65;2.42;;;13.40;64.00;;;;;;1477027;40;20362;-59
2021/05/26 02:29:19;;;;;;;3.88;2.63;;;13.40;64.00;;;;;;1476190;40;20025;-59
2021/05/26 02:30:39;;;;;;;4.72;2.40;;;13.40;64.00;;;;;;1475670;40;20067;-59
2021/05/26 02:32:00;;;;;;;6.88;2.80;;;13.40;64.10;;;;;;1475024;40;20399;-59
2021/05/26 02:33:21;;;;;;;9.30;2.75;;;13.40;64.10;;;;;;1476887;40;20033;-59
2021/05/26 02:34:43;;;;;;;6.75;2.40;;;13.40;64.10;;;;;;1475408;40;20030;-58
2021/05/26 02:36:05;;;;;;;4.30;2.40;;;13.30;64.00;;;;;;1476380;40;20043;-59
2021/05/26 02:37:26;;;;;;;5.78;2.70;;;13.40;64.10;;;;;;1475424;40;20111;-59
2021/05/26 02:38:47;;;;;;;5.95;2.55;;;13.30;64.20;;;;;;1475147;40;20045;-59
2021/05/26 02:40:08;;;;;;;5.55;2.50;;;13.30;64.10;;;;;;1475924;40;20045;-59
2021/05/26 02:41:29;;;;;;;4.25;2.38;;;13.30;64.10;;;;;;1476606;40;20026;-59
2021/05/26 02:42:50;;;;;;;4.00;2.28;;;13.30;64.20;;;;;;1476259;40;20025;-59
2021/05/26 02:44:11;;;;;;;5.20;2.50;;;13.30;64.20;;;;;;1476646;40;20025;-59
2021/05/26 02:45:33;;;;;;;4.90;2.58;;;13.30;64.20;;;;;;1476740;40;20043;-59
2021/05/26 02:46:53;;;;;;;5.40;2.50;;;13.30;64.20;;;;;;1474547;40;20060;-59
2021/05/26 02:48:14;;;;;;;8.32;2.78;;;13.30;65.00;;;;;;1474897;40;20029;-59
2021/05/26 02:49:35;;;;;;;4.85;2.40;;;13.20;64.30;;;;;;1477129;40;20275;-59
2021/05/26 02:50:56;;;;;;;5.93;2.42;;;13.20;64.30;;;;;;1475804;40;20127;-59
2021/05/26 02:52:17;;;;;;;3.85;2.50;;;13.20;64.30;;;;;;1478779;40;20056;-59
2021/05/26 02:53:38;;;;;;;4.75;2.60;;;13.20;64.30;;;;;;1474660;40;20037;-59
2021/05/26 02:54:59;;;;;;;6.22;2.50;;;13.20;64.30;;;;;;1474907;40;20038;-60
2021/05/26 02:56:19;;;;;;;2.60;2.30;;;13.20;64.40;;;;;;1475233;40;20381;-59
2021/05/26 02:57:41;;;;;;;6.60;2.38;;;13.20;64.50;;;;;;1475226;40;20070;-59
2021/05/26 02:59:04;;;;;;;4.20;2.35;;;13.20;64.50;;;;;;1474886;40;20139;-59
2021/05/26 03:00:26;;;;;;;5.45;2.10;;;13.20;64.50;;;;;;1476709;40;20029;-59
2021/05/26 03:01:47;;;;;;;7.05;2.33;;;13.20;64.60;;;;;;1475632;40;20655;-59
2021/05/26 03:03:07;;;;;;;6.95;2.58;;;13.20;64.60;;;;;;1475270;40;20045;-59
2021/05/26 03:04:28;;;;;;;4.38;2.20;;;13.20;64.60;;;;;;1474991;40;20029;-59
2021/05/26 03:05:49;;;;;;;5.65;2.40;;;13.20;64.70;;;;;;1475046;40;20063;-60
2021/05/26 03:07:10;;;;;;;5.78;2.38;;;13.20;64.70;;;;;;1476816;40;20033;-59
2021/05/26 03:08:31;;;;;;;5.22;2.25;;;13.20;64.70;;;;;;1476116;40;20037;-59
2021/05/26 03:09:52;;;;;;;4.95;2.35;;;13.20;64.70;;;;;;1474758;40;20077;-59
2021/05/26 03:11:13;;;;;;;4.20;2.20;;;13.20;64.70;;;;;;1480382;40;20374;-59
2021/05/26 03:12:34;;;;;;;4.35;2.25;;;13.20;64.70;;;;;;1477695;40;20041;-59
2021/05/26 03:13:55;;;;;;;4.38;2.10;;;13.10;64.60;;;;;;1480780;40;20035;-59
2021/05/26 03:15:17;;;;;;;9.30;2.10;;;13.20;64.60;;;;;;1480280;40;20028;-60
2021/05/26 03:16:38;;;;;;;3.85;2.05;;;13.20;64.70;;;;;;1481435;40;20033;-59
2021/05/26 03:17:59;;;;;;;3.58;2.13;;;13.20;64.80;;;;;;1479821;40;20095;-59
2021/05/26 03:19:20;;;;;;;4.30;2.40;;;13.20;64.80;;;;;;1480513;40;20029;-59
2021/05/26 03:20:41;;;;;;;6.68;2.58;;;13.20;64.80;;;;;;1479115;40;20021;-60
2021/05/26 03:22:02;;;;;;;3.83;2.42;;;13.10;64.60;;;;;;1477151;40;20041;-59
2021/05/26 03:23:23;;;;;;;5.93;2.65;;;13.20;64.80;;;;;;1481471;40;20028;-59
2021/05/26 03:24:44;;;;;;;4.25;2.30;;;13.20;64.80;;;;;;1480802;40;20029;-59
2021/05/26 03:26:06;;;;;;;3.53;2.17;;;13.20;64.80;;;;;;1479686;40;20033;-59
2021/05/26 03:27:34;;;;;;;3.38;1.95;;;13.20;64.80;;;;;;1479576;40;20044;-59
2021/05/26 03:28:55;;;;;;;3.17;2.08;;;13.20;64.80;;;;;;1480295;40;20040;-59
2021/05/26 03:30:18;;;;;;;3.92;2.30;;;13.20;64.80;;;;;;1482260;40;20096;-59
2021/05/26 03:31:39;;;;;;;1.98;1.70;;;13.10;64.70;;;;;;1480156;40;20480;-59
2021/05/26 03:33:04;;;;;;;3.83;2.20;;;13.20;64.80;;;;;;1478998;40;20035;-60
2021/05/26 03:34:25;;;;;;;5.60;2.13;;;13.20;64.80;;;;;;1480702;40;20021;-59
2021/05/26 03:35:46;;;;;;;3.05;2.13;;;13.20;64.80;;;;;;1481643;40;20029;-59
2021/05/26 03:37:07;;;;;;;2.95;2.10;;;13.20;64.70;;;;;;1480544;40;20036;-59
2021/05/26 03:38:28;;;;;;;3.58;2.03;;;13.20;64.70;;;;;;1481471;40;20117;-59
2021/05/26 03:39:48;;;;;;;4.53;2.03;;;13.20;64.60;;;;;;1479722;40;20041;-58
2021/05/26 03:41:09;;;;;;;2.90;1.70;;;13.20;64.60;;;;;;1481809;40;20028;-59
2021/05/26 03:42:30;;;;;;;3.80;1.75;;;13.20;64.80;;;;;;1480383;40;20047;-59
2021/05/26 03:43:51;;;;;;;3.40;1.90;;;13.20;64.60;;;;;;1481324;40;20017;-59
2021/05/26 03:45:13;;;;;;;3.75;1.92;;;13.20;64.60;;;;;;1481429;40;20076;-59
2021/05/26 03:46:35;;;;;;;3.78;1.73;;;13.20;64.70;;;;;;1481042;40;20397;-59
2021/05/26 03:47:57;;;;;;;2.65;1.48;;;13.20;64.60;;;;;;1480583;40;20049;-59
2021/05/26 03:49:18;;;;;;;4.13;1.90;;;13.20;64.70;;;;;;1480689;40;20592;-59
2021/05/26 03:50:39;;;;;;;3.50;1.80;;;13.20;64.70;;;;;;1479484;40;20029;-59
2021/05/26 03:52:00;;;;;;;4.13;2.13;;;13.20;64.80;;;;;;1480382;40;20032;-59
2021/05/26 03:53:21;;;;;;;4.45;2.03;;;13.20;64.80;;;;;;1481735;40;20024;-59
2021/05/26 03:54:42;;;;;;;5.00;1.95;;;13.20;64.70;;;;;;1480720;40;20437;-59
2021/05/26 03:56:03;;;;;;;4.32;1.70;;;13.20;64.80;;;;;;1479786;40;20041;-59
2021/05/26 03:57:24;;;;;;;8.80;2.17;;;13.20;64.80;;;;;;1481417;40;20028;-59
2021/05/26 03:58:45;;;;;;;5.07;2.15;;;13.20;64.80;;;;;;1482290;40;20125;-59
2021/05/26 04:00:09;;;;;;;5.82;1.70;;;13.20;64.80;;;;;;1480898;40;20281;-60
2021/05/26 04:01:30;;;;;;;3.42;1.80;;;13.20;64.80;;;;;;1478480;40;20029;-59
2021/05/26 04:02:51;;;;;;;2.97;2.05;;;13.20;64.70;;;;;;1478645;40;20751;-59
2021/05/26 04:04:12;;;;;;;2.53;1.85;;;13.30;64.80;;;;;;1481233;40;20426;-59
2021/05/26 04:05:32;;;;;;;3.30;2.08;;;13.20;64.70;;;;;;1480061;40;20044;-59
2021/05/26 04:06:53;;;;;;;3.22;1.80;;;13.20;64.60;;;;;;1476807;40;20236;-59
2021/05/26 04:08:14;;;;;;;4.13;2.25;;;13.20;64.80;;;;;;1481918;40;20028;-59
2021/05/26 04:09:35;;;;;;;2.75;1.90;;;13.20;64.80;;;;;;1481459;40;20041;-59
2021/05/26 04:10:56;;;;;;;2.47;1.80;;;13.20;64.90;;;;;;1479898;40;20033;-59
2021/05/26 04:12:17;;;;;;;3.63;1.85;;;13.20;65.00;;;;;;1481074;40;20021;-59
2021/05/26 04:13:38;;;;;;;3.17;1.75;;;13.20;65.00;;;;;;1482384;40;20047;-60
2021/05/26 04:14:59;;;;;;;3.35;1.85;;;13.20;65.00;;;;;;1479526;40;20037;-59
2021/05/26 04:16:20;;;;;;;2.78;2.03;;;13.20;65.10;;;;;;1479120;40;20031;-59
2021/05/26 04:17:41;;;;;;;3.63;1.80;;;13.20;65.80;;;;;;1479166;40;20073;-59
2021/05/26 04:19:02;;;;;;;2.78;1.67;;;13.20;65.00;;;;;;1479999;40;20045;-59
2021/05/26 04:20:23;;;;;;;3.53;1.67;;;13.20;65.10;;;;;;1481008;40;20049;-59
2021/05/26 04:21:44;;;;;;;3.28;2.10;;;13.30;65.20;;;;;;1481879;40;20035;-59
2021/05/26 04:23:05;;;;;;;1.70;1.30;;;13.20;65.10;;;;;;1479456;40;20037;-59
2021/05/26 04:24:26;;;;;;;2.80;1.65;;;13.20;65.10;;;;;;1481623;40;20031;-59
2021/05/26 04:25:49;;;;;;;2.55;1.52;;;13.30;65.10;;;;;;1480450;40;20040;-59
2021/05/26 04:27:10;;;;;;;2.70;1.60;;;13.30;65.10;;;;;;1481278;40;20025;-59
2021/05/26 04:28:31;;;;;;;2.30;1.50;;;13.30;65.10;;;;;;1479612;40;20040;-59
2021/05/26 04:29:52;;;;;;;3.05;1.92;;;13.20;65.10;;;;;;1478021;40;20037;-59
2021/05/26 04:31:14;;;;;;;3.50;1.73;;;13.30;65.10;;;;;;1479708;40;20365;-59
2021/05/26 04:32:35;;;;;;;1.83;1.60;;;13.30;65.10;;;;;;1479318;40;20028;-59
2021/05/26 04:33:56;;;;;;;5.72;2.08;;;13.20;65.00;;;;;;1478177;40;20024;-59
2021/05/26 04:35:17;;;;;;;2.30;1.90;;;13.20;65.00;;;;;;1481357;40;20277;-59
2021/05/26 04:36:38;;;;;;;4.72;1.70;;;13.20;65.00;;;;;;1482321;40;20033;-59
2021/05/26 04:37:59;;;;;;;3.33;2.08;;;13.20;65.00;;;;;;1479405;40;20119;-59
2021/05/26 04:39:20;;;;;;;5.13;1.95;;;13.20;65.00;;;;;;1481743;40;20077;-59
2021/05/26 04:40:41;;;;;;;2.60;1.85;;;13.20;65.10;;;;;;1479038;40;20044;-59
2021/05/26 04:42:02;;;;;;;3.40;1.70;;;13.20;65.20;;;;;;1480244;40;20554;-59
2021/05/26 04:43:23;;;;;;;4.20;1.80;;;13.20;65.20;;;;;;1479603;40;20355;-58
2021/05/26 04:44:44;;;;;;;2.58;1.95;;;13.20;65.20;;;;;;1481981;40;20433;-59
2021/05/26 04:46:05;;;;;;;3.65;1.98;;;13.20;65.20;;;;;;1479604;40;20052;-59
2021/05/26 04:47:26;;;;;;;1.88;1.65;;;13.20;65.30;;;;;;1481741;40;20040;-59
2021/05/26 04:48:46;;;;;;;2.28;1.75;;;13.20;65.20;;;;;;1479170;40;20093;-59
2021/05/26 04:50:08;;;;;;;3.35;1.77;;;13.20;65.20;;;;;;1479242;40;20052;-59
2021/05/26 04:51:29;;;;;;;3.55;2.00;;;13.20;65.20;;;;;;1480378;40;20045;-59
2021/05/26 04:52:49;;;;;;;2.30;1.48;;;13.20;65.20;;;;;;1477853;40;20456;-59
2021/05/26 04:54:10;;;;;;;2.78;1.52;;;13.30;65.20;;;;;;1481050;40;20102;-60
2021/05/26 04:55:31;;;;;;;1.95;1.77;;;13.20;65.10;;;;;;1480311;40;20427;-59
2021/05/26 04:56:52;;;;;;;2.53;1.60;;;13.30;65.20;;;;;;1480793;40;20045;-59
2021/05/26 04:58:13;;;;;;;1.85;1.50;;;13.20;65.20;;;;;;1479115;40;20048;-59
2021/05/26 04:59:34;;;;;;;2.85;2.20;;;13.30;65.30;;;;;;1481109;40;20065;-59
2021/05/26 05:00:55;;;;;;;2.55;1.77;;;13.20;65.20;;;;;;1478662;40;20278;-59
2021/05/26 05:02:16;;;;;;;1.60;1.50;;;13.30;65.40;;;;;;1479061;40;20021;-59
2021/05/26 05:03:37;;;;;;;2.67;1.70;;;13.30;65.40;;;;;;1481388;40;20028;-59
2021/05/26 05:04:58;;;;;;;1.75;1.50;;;13.30;65.30;;;;;;1480513;40;20339;-59
2021/05/26 05:06:20;;;;;;;2.55;1.55;;;13.30;65.20;;;;;;1480099;40;20440;-59
2021/05/26 05:07:42;;;;;;;1.40;1.30;;;13.30;65.30;;;;;;1479671;40;20041;-59
2021/05/26 05:09:05;;;;;;;2.38;1.52;;;13.30;65.30;;;;;;1478598;40;20048;-59
2021/05/26 05:10:26;;;;;;;3.38;1.67;;;13.30;65.30;;;;;;1480366;40;20033;-59
2021/05/26 05:11:47;;;;;;;1.77;1.52;;;13.30;65.20;;;;;;1480888;40;20047;-59
2021/05/26 05:13:08;;;;;;;2.78;1.50;;;13.30;65.10;;;;;;1480347;40;20037;-59
2021/05/26 05:14:29;;;;;;;2.17;1.48;;;13.40;65.30;;;;;;1479844;40;20032;-59
2021/05/26 05:15:50;;;;;;;1.45;1.30;;;13.40;65.30;;;;;;1479324;40;20041;-59
2021/05/26 05:17:11;;;;;;;3.72;1.88;;;13.40;65.30;;;;;;1480701;40;20110;-59
2021/05/26 05:18:31;;;;;;;4.00;1.55;;;13.40;65.20;;;;;;1479657;40;20031;-59
2021/05/26 05:19:52;;;;;;;3.45;1.70;;;13.40;65.20;;;;;;1479213;40;20033;-59
2021/05/26 05:21:13;;;;;;;3.30;1.30;;;13.40;65.10;;;;;;1480679;40;20542;-59
2021/05/26 05:22:34;;;;;;;2.95;1.58;;;13.40;65.10;;;;;;1479079;40;20037;-59
2021/05/26 05:23:55;;;;;;;2.28;1.65;;;13.40;65.20;;;;;;1479004;40;20450;-59
2021/05/26 05:25:16;;;;;;;1.55;1.45;;;13.40;65.20;;;;;;1480416;40;20033;-59
2021/05/26 05:26:37;;;;;;;2.03;1.60;;;13.40;65.10;;;;;;1480378;40;20280;-60
2021/05/26 05:27:58;;;;;;;2.85;1.40;;;13.40;65.10;;;;;;1478262;40;20040;-59
2021/05/26 05:29:19;;;;;;;2.00;1.90;;;13.40;65.10;;;;;;1480721;40;20025;-59
2021/05/26 05:30:40;;;;;;;1.45;1.33;;;13.40;65.10;;;;;;1478738;40;20305;-59
2021/05/26 05:32:01;;;;;;;2.15;1.65;;;13.40;65.00;;;;;;1481982;40;20041;-59
2021/05/26 05:33:22;;;;;;;2.80;1.52;;;13.50;65.20;;;;;;1480443;40;20045;-59
2021/05/26 05:34:43;;;;;;;2.30;1.40;;;13.50;65.20;;;;;;1481977;40;20073;-59
2021/05/26 05:36:05;;;;;;;1.92;1.20;;;13.50;65.10;;;;;;1480134;40;20044;-59
2021/05/26 05:37:26;;;;;;;2.47;1.50;;;13.50;65.10;;;;;;1480484;40;20025;-59
2021/05/26 05:38:48;;;;;;;1.45;1.30;;;13.50;65.10;;;;;;1479107;40;20061;-59
2021/05/26 05:40:10;;;;;;;1.30;1.20;;;13.50;65.10;;;;;;1480679;40;20016;-59
2021/05/26 05:41:31;;;;;;;2.65;1.55;;;13.50;65.20;;;;;;1478190;40;20412;-59
2021/05/26 05:42:51;;;;;;;1.38;1.27;;;13.50;65.10;;;;;;1480366;40;20301;-59
2021/05/26 05:44:12;;;;;;;2.08;1.17;;;13.60;65.20;;;;;;1479694;40;20032;-59
2021/05/26 05:45:33;;;;;;;2.45;1.60;;;13.50;65.20;;;;;;1480381;40;20045;-59
2021/05/26 05:46:54;;;;;;;1.92;1.80;;;13.60;65.20;;;;;;1480962;40;20174;-59
2021/05/26 05:48:15;;;;;;;2.55;1.50;;;13.60;65.30;;;;;;1480791;40;20021;-59
2021/05/26 05:49:36;;;;;;;2.63;1.75;;;13.60;65.30;;;;;;1477892;40;20034;-59
2021/05/26 05:50:57;;;;;;;1.70;1.33;;;13.60;65.20;;;;;;1478243;40;20028;-59
2021/05/26 05:52:18;;;;;;;3.45;1.35;;;13.70;65.10;;;;;;1477696;40;20037;-59
2021/05/26 05:53:39;;;;;;;2.17;1.55;;;13.60;65.00;;;;;;1477882;40;20014;-59
2021/05/26 05:55:00;;;;;;;2.20;1.30;;;13.70;65.10;;;;;;1479670;40;20045;-59
2021/05/26 05:56:21;;;;;;;1.58;1.40;;;13.70;65.00;;;;;;1479616;40;20037;-59
2021/05/26 05:57:42;;;;;;;1.20;1.20;;;13.70;64.90;;;;;;1482514;40;20020;-59
2021/05/26 05:59:03;;;;;;;3.15;1.20;;;13.70;64.90;;;;;;1480445;40;20045;-59
2021/05/26 06:00:24;;;;;;;2.42;1.48;;;13.70;64.90;;;;;;1479891;40;20032;-59
2021/05/26 06:01:44;;;;;;;3.22;1.75;;;13.70;64.70;;;;;;1479627;40;20036;-59
2021/05/26 06:03:05;;;;;;;3.38;1.58;;;13.70;64.60;;;;;;1479011;40;20033;-59
2021/05/26 06:04:26;;;;;;;1.88;1.50;;;13.70;64.50;;;;;;1479607;40;20329;-59
2021/05/26 06:05:47;;;;;;;1.83;1.30;;;13.70;64.40;;;;;;1479460;40;20029;-59
2021/05/26 06:07:08;;;;;;;1.20;1.10;;;13.70;64.40;;;;;;1480034;40;20051;-59
2021/05/26 06:08:29;;;;;;;2.88;1.40;;;13.70;64.50;;;;;;1480226;40;20029;-59
2021/05/26 06:09:51;;;;;;;2.58;1.23;;;13.70;64.50;;;;;;1481530;40;20065;-59
2021/05/26 06:11:12;;;;;;;1.80;1.25;;;13.70;64.40;;;;;;1480480;40;20428;-60
2021/05/26 06:12:33;;;;;;;1.50;1.40;;;13.70;64.40;;;;;;1480589;40;20037;-59
2021/05/26 06:13:54;;;;;;;4.25;1.55;;;13.70;64.40;;;;;;1479798;40;20063;-59
2021/05/26 06:15:15;;;;;;;1.77;1.33;;;13.80;64.50;;;;;;1480464;40;20259;-59
2021/05/26 06:16:38;;;;;;;1.52;1.30;;;13.70;64.40;;;;;;1479166;40;20052;-59
2021/05/26 06:17:59;;;;;;;2.15;1.08;;;13.80;64.50;;;;;;1479911;40;20036;-59
2021/05/26 06:19:20;;;;;;;2.28;1.40;;;13.70;64.50;;;;;;1478603;40;20021;-59
2021/05/26 06:20:41;;;;;;;1.55;1.48;;;13.80;64.50;;;;;;1480949;40;20033;-59
2021/05/26 06:22:02;;;;;;;1.58;1.13;;;13.80;64.50;;;;;;1480243;40;20039;-59
2021/05/26 06:23:23;;;;;;;1.40;1.30;;;13.80;64.60;;;;;;1479112;40;20643;-59
2021/05/26 06:24:43;;;;;;;1.30;1.23;;;13.80;64.60;;;;;;1481253;40;20274;-59
2021/05/26 06:26:04;;;;;;;1.85;1.30;;;13.80;64.50;;;;;;1480942;40;20040;-59
2021/05/26 06:27:25;;;;;;;2.55;1.30;;;13.90;64.50;;;;;;1479365;40;20025;-60
2021/05/26 06:28:46;;;;;;;3.05;1.23;;;13.90;64.40;;;;;;1479515;40;20385;-59
2021/05/26 06:30:08;;;;;;;5.60;1.30;;;13.90;64.50;;;;;;1477858;40;20271;-59
2021/05/26 06:31:30;;;;;;;1.75;1.40;;;13.90;64.60;;;;;;1480059;40;20082;-59
2021/05/26 06:32:50;;;;;;;2.05;1.30;;;13.90;64.60;;;;;;1481331;40;20043;-59
2021/05/26 06:34:11;;;;;;;2.05;1.13;;;13.90;64.50;;;;;;1480761;40;20048;-59
2021/05/26 06:35:32;;;;;;;2.47;1.38;;;13.90;64.50;;;;;;1480156;40;20036;-59
2021/05/26 06:36:53;;;;;;;3.03;1.50;;;13.90;64.40;;;;;;1478955;40;20029;-59
2021/05/26 06:38:14;;;;;;;1.42;1.20;;;14.00;64.40;;;;;;1481696;40;20035;-59
2021/05/26 06:39:35;;;;;;;1.92;1.40;;;14.00;64.10;;;;;;1478748;40;20044;-59
2021/05/26 06:40:56;;;;;;;1.50;1.20;;;14.00;63.90;;;;;;1478770;40;20405;-59
2021/05/26 06:42:18;;;;;;;1.85;1.20;;;14.00;63.80;;;;;;1481576;40;20114;-59
2021/05/26 06:43:39;;;;;;;1.63;1.40;;;14.00;63.80;;;;;;1479650;40;20033;-59
2021/05/26 06:45:01;;;;;;;2.03;1.10;;;14.00;63.50;;;;;;1480852;40;20067;-60
2021/05/26 06:46:22;;;;;;;1.25;1.10;;;14.00;63.60;;;;;;1480225;40;20053;-59
2021/05/26 06:47:42;;;;;;;2.05;1.63;;;14.00;63.70;;;;;;1480986;40;20045;-59
2021/05/26 06:49:04;;;;;;;3.47;1.60;;;14.00;63.70;;;;;;1479420;40;20107;-60
2021/05/26 06:50:25;;;;;;;2.25;1.40;;;14.00;63.40;;;;;;1478392;40;20145;-59
2021/05/26 06:51:45;;;;;;;1.40;1.30;;;14.00;63.30;;;;;;1478309;40;20449;-59
2021/05/26 06:53:06;;;;;;;1.10;1.10;;;14.00;63.40;;;;;;1479644;40;20458;-59
2021/05/26 06:54:27;;;;;;;1.10;1.10;;;14.00;63.40;;;;;;1481163;40;20025;-59
2021/05/26 06:55:48;;;;;;;1.50;1.20;;;14.10;63.60;;;;;;1481639;40;20076;-59
2021/05/26 06:57:09;;;;;;;1.60;1.30;;;14.00;63.60;;;;;;1481802;40;20302;-59
2021/05/26 06:58:30;;;;;;;1.15;1.08;;;14.10;63.70;;;;;;1480910;40;20158;-59
2021/05/26 06:59:51;;;;;;;0.95;0.95;;;14.10;63.60;;;;;;1478859;40;20025;-59
2021/05/26 07:01:12;;;;;;;1.17;1.10;;;14.10;63.60;;;;;;1481193;40;20111;-59
2021/05/26 07:02:33;;;;;;;1.27;1.17;;;14.10;63.60;;;;;;1477601;40;20028;-59
2021/05/26 07:03:54;;;;;;;1.40;1.30;;;14.10;63.40;;;;;;1478499;40;20039;-59
2021/05/26 07:05:14;;;;;;;1.58;1.48;;;14.10;63.30;;;;;;1481644;40;20527;-59